CSZ8545 ZSWZ-ZGSD
Flight info
| Callsign | CSZ8545 |
|---|---|
| Flight time | 1h 41m |
| Altitude | 27600 |
| Route | RUP51X RUPOX/K0885S0920 B221 LJG A470 BEBEM R200 OVGOT OVG01A |
| Aircraft | B738/M-SDE2E3FGHIRWXY/LB1 |
Departure
| Time | 2026-04-18 06:07 |
|---|---|
| Airport | Wenzhou Longwan International Airport (ZSWZ) |
Arrival
| Time | 2026-04-18 07:48 |
|---|---|
| Airport | Zhuhai Jinwan Airport (ZGSD) |
| Time | Latitude | Longitude | Altitude | Speed | Heading |
|---|---|---|---|---|---|
| 2026-04-18 05:41 | 27.90995 | 120.84754 | 19 ft | 0 kts | 232° |
| 2026-04-18 05:58 | 27.91002 | 120.84764 | 16 ft | 3 kts | 230° |
| 2026-04-18 05:59 | 27.91015 | 120.84781 | 17 ft | 3 kts | 225° |
| 2026-04-18 05:59 | 27.91030 | 120.84796 | 18 ft | 3 kts | 215° |
| 2026-04-18 05:59 | 27.91047 | 120.84806 | 18 ft | 3 kts | 188° |
| 2026-04-18 05:59 | 27.91060 | 120.84806 | 19 ft | 2 kts | 131° |
| 2026-04-18 06:00 | 27.91063 | 120.84802 | 19 ft | 0 kts | 118° |
| 2026-04-18 06:03 | 27.91043 | 120.84844 | 19 ft | 13 kts | 118° |
| 2026-04-18 06:03 | 27.90995 | 120.84969 | 17 ft | 20 kts | 85° |
| 2026-04-18 06:03 | 27.91107 | 120.85068 | 16 ft | 23 kts | 27° |
| 2026-04-18 06:03 | 27.91255 | 120.85161 | 17 ft | 26 kts | 28° |
| 2026-04-18 06:04 | 27.91419 | 120.85259 | 17 ft | 27 kts | 28° |
| 2026-04-18 06:04 | 27.91584 | 120.85359 | 16 ft | 22 kts | 28° |
| 2026-04-18 06:04 | 27.91724 | 120.85444 | 16 ft | 23 kts | 28° |
| 2026-04-18 06:04 | 27.91871 | 120.85533 | 16 ft | 25 kts | 27° |
| 2026-04-18 06:05 | 27.92025 | 120.85625 | 18 ft | 26 kts | 28° |
| 2026-04-18 06:05 | 27.92155 | 120.85703 | 16 ft | 12 kts | 28° |
| 2026-04-18 06:05 | 27.92202 | 120.85778 | 16 ft | 13 kts | 104° |
| 2026-04-18 06:05 | 27.92159 | 120.85877 | 16 ft | 14 kts | 117° |
| 2026-04-18 06:06 | 27.92104 | 120.85966 | 20 ft | 14 kts | 159° |
| 2026-04-18 06:06 | 27.92017 | 120.85922 | 16 ft | 15 kts | 210° |
| 2026-04-18 06:06 | 27.91824 | 120.85807 | 16 ft | 63 kts | 208° |
| 2026-04-18 06:06 | 27.91224 | 120.85445 | 16 ft | 130 kts | 208° |
| 2026-04-18 06:07 | 27.90270 | 120.84869 | 165 ft | 170 kts | 208° |
| 2026-04-18 06:07 | 27.89226 | 120.84239 | 964 ft | 170 kts | 208° |
| 2026-04-18 06:07 | 27.88167 | 120.83626 | 1752 ft | 174 kts | 207° |
| 2026-04-18 06:07 | 27.87021 | 120.82939 | 2191 ft | 203 kts | 209° |
| 2026-04-18 06:08 | 27.85732 | 120.82147 | 2694 ft | 215 kts | 209° |
| 2026-04-18 06:08 | 27.84403 | 120.81338 | 3363 ft | 218 kts | 209° |
| 2026-04-18 06:08 | 27.83054 | 120.80523 | 4059 ft | 223 kts | 210° |
| 2026-04-18 06:08 | 27.81678 | 120.79696 | 4903 ft | 223 kts | 210° |
| 2026-04-18 06:09 | 27.80302 | 120.78872 | 5721 ft | 225 kts | 211° |
| 2026-04-18 06:09 | 27.78910 | 120.78021 | 6477 ft | 228 kts | 217° |
| 2026-04-18 06:09 | 27.77908 | 120.76713 | 7188 ft | 223 kts | 247° |
| 2026-04-18 06:09 | 27.77429 | 120.75058 | 7963 ft | 222 kts | 258° |
| 2026-04-18 06:10 | 27.77090 | 120.73348 | 8713 ft | 224 kts | 259° |
| 2026-04-18 06:10 | 27.76811 | 120.71898 | 9368 ft | 226 kts | 258° |
| 2026-04-18 06:10 | 27.76466 | 120.70153 | 9824 ft | 227 kts | 258° |
| 2026-04-18 06:10 | 27.76112 | 120.68407 | 10015 ft | 230 kts | 258° |
| 2026-04-18 06:11 | 27.75751 | 120.66646 | 10370 ft | 231 kts | 258° |
| 2026-04-18 06:11 | 27.75386 | 120.64881 | 11118 ft | 230 kts | 257° |
| 2026-04-18 06:11 | 27.74774 | 120.63228 | 11869 ft | 232 kts | 235° |
| 2026-04-18 06:11 | 27.73597 | 120.61891 | 12334 ft | 252 kts | 221° |
| 2026-04-18 06:12 | 27.72069 | 120.60709 | 12516 ft | 279 kts | 217° |
| 2026-04-18 06:12 | 27.70350 | 120.59504 | 12701 ft | 303 kts | 216° |
| 2026-04-18 06:12 | 27.68489 | 120.58218 | 12874 ft | 325 kts | 215° |
| 2026-04-18 06:12 | 27.66500 | 120.56838 | 13025 ft | 346 kts | 215° |
| 2026-04-18 06:13 | 27.64399 | 120.55369 | 13149 ft | 364 kts | 215° |
| 2026-04-18 06:13 | 27.62200 | 120.53820 | 13318 ft | 380 kts | 215° |
| 2026-04-18 06:13 | 27.59940 | 120.52220 | 13748 ft | 386 kts | 215° |
| 2026-04-18 06:13 | 27.57667 | 120.50608 | 14326 ft | 387 kts | 216° |
| 2026-04-18 06:14 | 27.55389 | 120.48989 | 14909 ft | 387 kts | 216° |
| 2026-04-18 06:14 | 27.53103 | 120.47363 | 15439 ft | 389 kts | 216° |
| 2026-04-18 06:14 | 27.50809 | 120.45728 | 15943 ft | 391 kts | 216° |
| 2026-04-18 06:14 | 27.48504 | 120.44087 | 16462 ft | 393 kts | 216° |
| 2026-04-18 06:15 | 27.46184 | 120.42435 | 16949 ft | 396 kts | 216° |
| 2026-04-18 06:15 | 27.43820 | 120.40753 | 17447 ft | 398 kts | 216° |
| 2026-04-18 06:15 | 27.41477 | 120.39086 | 17919 ft | 400 kts | 217° |
| 2026-04-18 06:15 | 27.39113 | 120.37406 | 18340 ft | 403 kts | 216° |
| 2026-04-18 06:16 | 27.36735 | 120.35717 | 18699 ft | 405 kts | 216° |
| 2026-04-18 06:16 | 27.34345 | 120.34027 | 19093 ft | 407 kts | 216° |
| 2026-04-18 06:16 | 27.31975 | 120.32357 | 19473 ft | 409 kts | 216° |
| 2026-04-18 06:16 | 27.29560 | 120.30657 | 19828 ft | 411 kts | 216° |
| 2026-04-18 06:17 | 27.27125 | 120.28943 | 20157 ft | 414 kts | 216° |
| 2026-04-18 06:17 | 27.24680 | 120.27223 | 20490 ft | 416 kts | 216° |
| 2026-04-18 06:17 | 27.22221 | 120.25492 | 20826 ft | 418 kts | 216° |
| 2026-04-18 06:17 | 27.19750 | 120.23755 | 21170 ft | 420 kts | 217° |
| 2026-04-18 06:18 | 27.17269 | 120.22010 | 21516 ft | 422 kts | 217° |
| 2026-04-18 06:18 | 27.14776 | 120.20259 | 21843 ft | 424 kts | 216° |
| 2026-04-18 06:18 | 27.12268 | 120.18497 | 22170 ft | 426 kts | 216° |
| 2026-04-18 06:18 | 27.09756 | 120.16720 | 22478 ft | 428 kts | 217° |
| 2026-04-18 06:19 | 27.07233 | 120.14927 | 22754 ft | 430 kts | 217° |
| 2026-04-18 06:19 | 27.04699 | 120.13123 | 23020 ft | 432 kts | 217° |
| 2026-04-18 06:19 | 27.02157 | 120.11314 | 23287 ft | 434 kts | 217° |
| 2026-04-18 06:19 | 26.99597 | 120.09493 | 23530 ft | 436 kts | 217° |
| 2026-04-18 06:20 | 26.97032 | 120.07672 | 23741 ft | 438 kts | 217° |
| 2026-04-18 06:20 | 26.94455 | 120.05845 | 23966 ft | 439 kts | 217° |
| 2026-04-18 06:20 | 26.91868 | 120.04012 | 24189 ft | 440 kts | 217° |
| 2026-04-18 06:20 | 26.89274 | 120.02175 | 24413 ft | 441 kts | 217° |
| 2026-04-18 06:21 | 26.86677 | 120.00337 | 24647 ft | 442 kts | 216° |
| 2026-04-18 06:21 | 26.84077 | 119.98498 | 24855 ft | 443 kts | 217° |
| 2026-04-18 06:21 | 26.81467 | 119.96652 | 25031 ft | 445 kts | 217° |
| 2026-04-18 06:21 | 26.78842 | 119.94796 | 25230 ft | 446 kts | 217° |
| 2026-04-18 06:22 | 26.76215 | 119.92941 | 25410 ft | 448 kts | 217° |
| 2026-04-18 06:22 | 26.73616 | 119.91106 | 25660 ft | 447 kts | 217° |
| 2026-04-18 06:22 | 26.70955 | 119.89230 | 26001 ft | 445 kts | 217° |
| 2026-04-18 06:22 | 26.68374 | 119.87411 | 26276 ft | 444 kts | 217° |
| 2026-04-18 06:23 | 26.65763 | 119.85570 | 26531 ft | 445 kts | 217° |
| 2026-04-18 06:23 | 26.63144 | 119.83725 | 26808 ft | 444 kts | 217° |
| 2026-04-18 06:23 | 26.60534 | 119.81887 | 27148 ft | 442 kts | 217° |
| 2026-04-18 06:23 | 26.57936 | 119.80059 | 27508 ft | 441 kts | 217° |
| 2026-04-18 06:24 | 26.55337 | 119.78231 | 27576 ft | 442 kts | 217° |
| 2026-04-18 06:24 | 26.52742 | 119.76405 | 27596 ft | 441 kts | 217° |
| 2026-04-18 06:24 | 26.50143 | 119.74579 | 27605 ft | 441 kts | 217° |
| 2026-04-18 06:24 | 26.47546 | 119.72755 | 27597 ft | 441 kts | 217° |
| 2026-04-18 06:25 | 26.44947 | 119.70930 | 27598 ft | 441 kts | 217° |
| 2026-04-18 06:25 | 26.42359 | 119.69109 | 27588 ft | 440 kts | 217° |
| 2026-04-18 06:25 | 26.39770 | 119.67286 | 27601 ft | 440 kts | 217° |
| 2026-04-18 06:25 | 26.37185 | 119.65468 | 27591 ft | 439 kts | 217° |
| 2026-04-18 06:26 | 26.34599 | 119.63648 | 27593 ft | 439 kts | 217° |
| 2026-04-18 06:26 | 26.32015 | 119.61832 | 27589 ft | 439 kts | 217° |
| 2026-04-18 06:26 | 26.29437 | 119.60020 | 27598 ft | 438 kts | 217° |
| 2026-04-18 06:26 | 26.26891 | 119.58232 | 27587 ft | 438 kts | 217° |
| 2026-04-18 06:27 | 26.24312 | 119.56424 | 27595 ft | 438 kts | 217° |
| 2026-04-18 06:27 | 26.21625 | 119.54782 | 27587 ft | 444 kts | 210° |
| 2026-04-18 06:27 | 26.18717 | 119.53563 | 27594 ft | 450 kts | 203° |
| 2026-04-18 06:27 | 26.15713 | 119.52563 | 27594 ft | 451 kts | 202° |
| 2026-04-18 06:28 | 26.12707 | 119.51577 | 27589 ft | 451 kts | 202° |
| 2026-04-18 06:28 | 26.09699 | 119.50585 | 27595 ft | 451 kts | 202° |
| 2026-04-18 06:28 | 26.06696 | 119.49583 | 27588 ft | 451 kts | 202° |
| 2026-04-18 06:28 | 26.03692 | 119.48571 | 27597 ft | 451 kts | 203° |
| 2026-04-18 06:29 | 26.00692 | 119.47553 | 27593 ft | 452 kts | 203° |
| 2026-04-18 06:29 | 25.97682 | 119.46530 | 27590 ft | 452 kts | 203° |
| 2026-04-18 06:29 | 25.94674 | 119.45507 | 27595 ft | 453 kts | 203° |
| 2026-04-18 06:29 | 25.91662 | 119.44484 | 27586 ft | 453 kts | 203° |
| 2026-04-18 06:30 | 25.88647 | 119.43461 | 27577 ft | 453 kts | 203° |
| 2026-04-18 06:30 | 25.85639 | 119.42441 | 27589 ft | 453 kts | 203° |
| 2026-04-18 06:30 | 25.82623 | 119.41419 | 27585 ft | 453 kts | 203° |
| 2026-04-18 06:30 | 25.79564 | 119.40383 | 27578 ft | 453 kts | 203° |
| 2026-04-18 06:31 | 25.76677 | 119.39184 | 27577 ft | 446 kts | 211° |
| 2026-04-18 06:31 | 25.73997 | 119.37510 | 27593 ft | 440 kts | 218° |
| 2026-04-18 06:31 | 25.71535 | 119.35517 | 27584 ft | 436 kts | 224° |
| 2026-04-18 06:31 | 25.69368 | 119.33187 | 27587 ft | 432 kts | 231° |
| 2026-04-18 06:32 | 25.67323 | 119.30752 | 27582 ft | 432 kts | 231° |
| 2026-04-18 06:32 | 25.65277 | 119.28302 | 27572 ft | 433 kts | 231° |
| 2026-04-18 06:32 | 25.63229 | 119.25859 | 27569 ft | 433 kts | 231° |
| 2026-04-18 06:32 | 25.61175 | 119.23421 | 27571 ft | 433 kts | 231° |
| 2026-04-18 06:33 | 25.59111 | 119.20984 | 27584 ft | 433 kts | 231° |
| 2026-04-18 06:33 | 25.57048 | 119.18556 | 27567 ft | 434 kts | 231° |
| 2026-04-18 06:33 | 25.54985 | 119.16131 | 27586 ft | 432 kts | 231° |
| 2026-04-18 06:33 | 25.52918 | 119.13707 | 27561 ft | 433 kts | 231° |
| 2026-04-18 06:34 | 25.50852 | 119.11289 | 27581 ft | 433 kts | 230° |
| 2026-04-18 06:34 | 25.48781 | 119.08863 | 27566 ft | 433 kts | 231° |
| 2026-04-18 06:34 | 25.46712 | 119.06437 | 27570 ft | 433 kts | 230° |
| 2026-04-18 06:34 | 25.44668 | 119.04043 | 27561 ft | 433 kts | 230° |
| 2026-04-18 06:35 | 25.42571 | 119.01588 | 27572 ft | 433 kts | 230° |
| 2026-04-18 06:35 | 25.40498 | 118.99163 | 27571 ft | 433 kts | 230° |
| 2026-04-18 06:35 | 25.38432 | 118.96746 | 27569 ft | 433 kts | 230° |
| 2026-04-18 06:35 | 25.36356 | 118.94320 | 27567 ft | 434 kts | 230° |
| 2026-04-18 06:36 | 25.34281 | 118.91898 | 27566 ft | 434 kts | 230° |
| 2026-04-18 06:36 | 25.32227 | 118.89463 | 27569 ft | 433 kts | 231° |
| 2026-04-18 06:36 | 25.30194 | 118.87010 | 27560 ft | 433 kts | 231° |
| 2026-04-18 06:36 | 25.28166 | 118.84548 | 27557 ft | 433 kts | 231° |
| 2026-04-18 06:37 | 25.26138 | 118.82088 | 27557 ft | 433 kts | 231° |
| 2026-04-18 06:37 | 25.24111 | 118.79634 | 27548 ft | 432 kts | 231° |
| 2026-04-18 06:37 | 25.22084 | 118.77185 | 27553 ft | 432 kts | 231° |
| 2026-04-18 06:37 | 25.20049 | 118.74731 | 27558 ft | 432 kts | 231° |
| 2026-04-18 06:38 | 25.18044 | 118.72317 | 27544 ft | 432 kts | 231° |
| 2026-04-18 06:38 | 25.16087 | 118.69963 | 27553 ft | 432 kts | 231° |
| 2026-04-18 06:38 | 25.14083 | 118.67551 | 27541 ft | 432 kts | 231° |
| 2026-04-18 06:38 | 25.12030 | 118.65082 | 27525 ft | 431 kts | 231° |
| 2026-04-18 06:39 | 25.10006 | 118.62651 | 27553 ft | 430 kts | 231° |
| 2026-04-18 06:39 | 25.07965 | 118.60226 | 27551 ft | 431 kts | 230° |
| 2026-04-18 06:39 | 25.05892 | 118.57833 | 27544 ft | 432 kts | 230° |
| 2026-04-18 06:39 | 25.03827 | 118.55479 | 27550 ft | 432 kts | 230° |
| 2026-04-18 06:40 | 25.01737 | 118.53102 | 27534 ft | 433 kts | 229° |
| 2026-04-18 06:40 | 24.99640 | 118.50715 | 27542 ft | 433 kts | 230° |
| 2026-04-18 06:40 | 24.98227 | 118.49104 | 27531 ft | 434 kts | 230° |
| 2026-04-18 06:40 | 24.95448 | 118.45931 | 27521 ft | 434 kts | 229° |
| 2026-04-18 06:41 | 24.94034 | 118.44315 | 27536 ft | 434 kts | 230° |
| 2026-04-18 06:41 | 24.91941 | 118.41922 | 27528 ft | 434 kts | 229° |
| 2026-04-18 06:41 | 24.89844 | 118.39525 | 27534 ft | 434 kts | 229° |
| 2026-04-18 06:41 | 24.87750 | 118.37132 | 27525 ft | 434 kts | 229° |
| 2026-04-18 06:42 | 24.85855 | 118.34968 | 27535 ft | 434 kts | 229° |
| 2026-04-18 06:42 | 24.83760 | 118.32577 | 27524 ft | 435 kts | 229° |
| 2026-04-18 06:42 | 24.81659 | 118.30181 | 27523 ft | 435 kts | 229° |
| 2026-04-18 06:42 | 24.79558 | 118.27785 | 27524 ft | 435 kts | 229° |
| 2026-04-18 06:43 | 24.77457 | 118.25391 | 27515 ft | 435 kts | 229° |
| 2026-04-18 06:43 | 24.75356 | 118.22998 | 27519 ft | 435 kts | 229° |
| 2026-04-18 06:43 | 24.73252 | 118.20602 | 27517 ft | 435 kts | 229° |
| 2026-04-18 06:43 | 24.71148 | 118.18208 | 27514 ft | 435 kts | 229° |
| 2026-04-18 06:44 | 24.69047 | 118.15818 | 27515 ft | 435 kts | 229° |
| 2026-04-18 06:44 | 24.66951 | 118.13427 | 27510 ft | 435 kts | 229° |
| 2026-04-18 06:44 | 24.64849 | 118.11027 | 27512 ft | 435 kts | 229° |
| 2026-04-18 06:44 | 24.62757 | 118.08638 | 27513 ft | 435 kts | 229° |
| 2026-04-18 06:45 | 24.60660 | 118.06243 | 27506 ft | 435 kts | 229° |
| 2026-04-18 06:45 | 24.58561 | 118.03850 | 27508 ft | 435 kts | 229° |
| 2026-04-18 06:45 | 24.56465 | 118.01463 | 27511 ft | 435 kts | 229° |
| 2026-04-18 06:45 | 24.54398 | 117.99041 | 27515 ft | 434 kts | 230° |
| 2026-04-18 06:46 | 24.52363 | 117.96585 | 27511 ft | 434 kts | 231° |
| 2026-04-18 06:46 | 24.50342 | 117.94121 | 27519 ft | 434 kts | 231° |
| 2026-04-18 06:46 | 24.48322 | 117.91656 | 27508 ft | 435 kts | 231° |
| 2026-04-18 06:46 | 24.46295 | 117.89189 | 27509 ft | 435 kts | 231° |
| 2026-04-18 06:47 | 24.44265 | 117.86729 | 27512 ft | 435 kts | 231° |
| 2026-04-18 06:47 | 24.42235 | 117.84274 | 27508 ft | 435 kts | 231° |
| 2026-04-18 06:47 | 24.40199 | 117.81819 | 27511 ft | 435 kts | 231° |
| 2026-04-18 06:47 | 24.38167 | 117.79370 | 27512 ft | 435 kts | 231° |
| 2026-04-18 06:48 | 24.36129 | 117.76916 | 27517 ft | 435 kts | 231° |
| 2026-04-18 06:48 | 24.34091 | 117.74464 | 27504 ft | 435 kts | 230° |
| 2026-04-18 06:48 | 24.32054 | 117.72012 | 27509 ft | 435 kts | 230° |
| 2026-04-18 06:48 | 24.30017 | 117.69563 | 27517 ft | 435 kts | 231° |
| 2026-04-18 06:49 | 24.27976 | 117.67110 | 27510 ft | 435 kts | 230° |
| 2026-04-18 06:49 | 24.25934 | 117.64657 | 27510 ft | 435 kts | 231° |
| 2026-04-18 06:49 | 24.23894 | 117.62207 | 27506 ft | 435 kts | 230° |
| 2026-04-18 06:49 | 24.21855 | 117.59759 | 27517 ft | 436 kts | 230° |
| 2026-04-18 06:50 | 24.19809 | 117.57304 | 27501 ft | 436 kts | 230° |
| 2026-04-18 06:50 | 24.17768 | 117.54856 | 27511 ft | 436 kts | 230° |
| 2026-04-18 06:50 | 24.15727 | 117.52410 | 27510 ft | 436 kts | 230° |
| 2026-04-18 06:50 | 24.13667 | 117.49971 | 27509 ft | 436 kts | 229° |
| 2026-04-18 06:51 | 24.11469 | 117.47682 | 27525 ft | 437 kts | 226° |
| 2026-04-18 06:51 | 24.09198 | 117.45456 | 27512 ft | 438 kts | 225° |
| 2026-04-18 06:51 | 24.06912 | 117.43255 | 27514 ft | 438 kts | 225° |
| 2026-04-18 06:51 | 24.04625 | 117.41053 | 27509 ft | 438 kts | 225° |
| 2026-04-18 06:52 | 24.02344 | 117.38847 | 27517 ft | 438 kts | 225° |
| 2026-04-18 06:52 | 24.00069 | 117.36632 | 27508 ft | 438 kts | 225° |
| 2026-04-18 06:52 | 23.97795 | 117.34412 | 27511 ft | 438 kts | 225° |
| 2026-04-18 06:52 | 23.95531 | 117.32198 | 27507 ft | 438 kts | 225° |
| 2026-04-18 06:53 | 23.93262 | 117.29976 | 27517 ft | 438 kts | 225° |
| 2026-04-18 06:53 | 23.90995 | 117.27756 | 27525 ft | 438 kts | 225° |
| 2026-04-18 06:53 | 23.88722 | 117.25533 | 27506 ft | 438 kts | 225° |
| 2026-04-18 06:53 | 23.86449 | 117.23312 | 27505 ft | 438 kts | 225° |
| 2026-04-18 06:54 | 23.84183 | 117.21099 | 27514 ft | 437 kts | 225° |
| 2026-04-18 06:54 | 23.81914 | 117.18884 | 27502 ft | 438 kts | 225° |
| 2026-04-18 06:54 | 23.79644 | 117.16667 | 27505 ft | 438 kts | 225° |
| 2026-04-18 06:54 | 23.77372 | 117.14452 | 27498 ft | 438 kts | 225° |
| 2026-04-18 06:55 | 23.75165 | 117.12171 | 27514 ft | 437 kts | 228° |
| 2026-04-18 06:55 | 23.73045 | 117.09793 | 27512 ft | 437 kts | 229° |
| 2026-04-18 06:55 | 23.70957 | 117.07390 | 27496 ft | 437 kts | 230° |
| 2026-04-18 06:55 | 23.68841 | 117.04943 | 27498 ft | 437 kts | 230° |
| 2026-04-18 06:56 | 23.66753 | 117.02537 | 27512 ft | 438 kts | 229° |
| 2026-04-18 06:56 | 23.64650 | 117.00127 | 27497 ft | 438 kts | 229° |
| 2026-04-18 06:56 | 23.62571 | 116.97757 | 27495 ft | 438 kts | 229° |
| 2026-04-18 06:56 | 23.60462 | 116.95359 | 27500 ft | 439 kts | 229° |
| 2026-04-18 06:57 | 23.58346 | 116.92958 | 27494 ft | 439 kts | 229° |
| 2026-04-18 06:57 | 23.54114 | 116.88158 | 27491 ft | 439 kts | 229° |
| 2026-04-18 06:57 | 23.51968 | 116.85725 | 27504 ft | 440 kts | 229° |
| 2026-04-18 06:58 | 23.49845 | 116.83320 | 27498 ft | 440 kts | 229° |
| 2026-04-18 06:58 | 23.47726 | 116.80919 | 27506 ft | 440 kts | 229° |
| 2026-04-18 06:58 | 23.45601 | 116.78514 | 27504 ft | 440 kts | 229° |
| 2026-04-18 06:58 | 23.43417 | 116.76171 | 27498 ft | 443 kts | 224° |
| 2026-04-18 06:59 | 23.40994 | 116.74093 | 27511 ft | 444 kts | 220° |
| 2026-04-18 06:59 | 23.38519 | 116.72061 | 27498 ft | 445 kts | 220° |
| 2026-04-18 06:59 | 23.36048 | 116.70042 | 27502 ft | 445 kts | 220° |
| 2026-04-18 06:59 | 23.33573 | 116.68013 | 27497 ft | 445 kts | 220° |
| 2026-04-18 07:00 | 23.31107 | 116.65981 | 27498 ft | 445 kts | 220° |
| 2026-04-18 07:00 | 23.28641 | 116.63940 | 27492 ft | 445 kts | 221° |
| 2026-04-18 07:00 | 23.26176 | 116.61897 | 27494 ft | 445 kts | 221° |
| 2026-04-18 07:00 | 23.23715 | 116.59855 | 27495 ft | 445 kts | 221° |
| 2026-04-18 07:01 | 23.21250 | 116.57810 | 27499 ft | 446 kts | 221° |
| 2026-04-18 07:01 | 23.18784 | 116.55766 | 27499 ft | 446 kts | 221° |
| 2026-04-18 07:01 | 23.16320 | 116.53724 | 27500 ft | 446 kts | 221° |
| 2026-04-18 07:01 | 23.13884 | 116.51707 | 27496 ft | 446 kts | 220° |
| 2026-04-18 07:02 | 23.11416 | 116.49664 | 27504 ft | 446 kts | 220° |
| 2026-04-18 07:02 | 23.08948 | 116.47622 | 27505 ft | 446 kts | 220° |
| 2026-04-18 07:02 | 23.06444 | 116.45552 | 27488 ft | 446 kts | 220° |
| 2026-04-18 07:02 | 23.04009 | 116.43538 | 27493 ft | 446 kts | 220° |
| 2026-04-18 07:03 | 23.01539 | 116.41498 | 27493 ft | 446 kts | 221° |
| 2026-04-18 07:03 | 22.99077 | 116.39455 | 27499 ft | 445 kts | 223° |
| 2026-04-18 07:03 | 22.96961 | 116.37045 | 27502 ft | 439 kts | 237° |
| 2026-04-18 07:03 | 22.95432 | 116.34199 | 27504 ft | 437 kts | 246° |
| 2026-04-18 07:04 | 22.94424 | 116.31106 | 27493 ft | 435 kts | 258° |
| 2026-04-18 07:04 | 22.94034 | 116.27852 | 27516 ft | 435 kts | 264° |
| 2026-04-18 07:04 | 22.93742 | 116.24587 | 27502 ft | 435 kts | 264° |
| 2026-04-18 07:04 | 22.93446 | 116.21314 | 27502 ft | 436 kts | 264° |
| 2026-04-18 07:05 | 22.93134 | 116.18045 | 27499 ft | 436 kts | 263° |
| 2026-04-18 07:05 | 22.92807 | 116.14777 | 27501 ft | 436 kts | 263° |
| 2026-04-18 07:05 | 22.92469 | 116.11501 | 27502 ft | 437 kts | 263° |
| 2026-04-18 07:05 | 22.92128 | 116.08226 | 27498 ft | 437 kts | 263° |
| 2026-04-18 07:06 | 22.91786 | 116.04945 | 27502 ft | 437 kts | 263° |
| 2026-04-18 07:06 | 22.91445 | 116.01671 | 27504 ft | 438 kts | 263° |
| 2026-04-18 07:06 | 22.91114 | 115.98392 | 27502 ft | 438 kts | 263° |
| 2026-04-18 07:06 | 22.90788 | 115.95109 | 27500 ft | 438 kts | 264° |
| 2026-04-18 07:07 | 22.90462 | 115.91820 | 27498 ft | 438 kts | 263° |
| 2026-04-18 07:07 | 22.90138 | 115.88581 | 27501 ft | 438 kts | 263° |
| 2026-04-18 07:07 | 22.89804 | 115.85251 | 27505 ft | 438 kts | 263° |
| 2026-04-18 07:07 | 22.89479 | 115.82016 | 27500 ft | 438 kts | 263° |
| 2026-04-18 07:08 | 22.89147 | 115.78729 | 27503 ft | 438 kts | 263° |
| 2026-04-18 07:08 | 22.88816 | 115.75447 | 27503 ft | 438 kts | 263° |
| 2026-04-18 07:08 | 22.88485 | 115.72169 | 27512 ft | 438 kts | 263° |
| 2026-04-18 07:08 | 22.88153 | 115.68889 | 27500 ft | 438 kts | 263° |
| 2026-04-18 07:09 | 22.87821 | 115.65607 | 27496 ft | 438 kts | 263° |
| 2026-04-18 07:09 | 22.87487 | 115.62326 | 27501 ft | 437 kts | 263° |
| 2026-04-18 07:09 | 22.87154 | 115.59052 | 27508 ft | 437 kts | 263° |
| 2026-04-18 07:09 | 22.86819 | 115.55774 | 27508 ft | 437 kts | 263° |
| 2026-04-18 07:10 | 22.86485 | 115.52505 | 27512 ft | 437 kts | 263° |
| 2026-04-18 07:10 | 22.86149 | 115.49231 | 27503 ft | 437 kts | 263° |
| 2026-04-18 07:10 | 22.85814 | 115.45960 | 27504 ft | 437 kts | 263° |
| 2026-04-18 07:10 | 22.85477 | 115.42689 | 27508 ft | 437 kts | 263° |
| 2026-04-18 07:11 | 22.85141 | 115.39426 | 27514 ft | 437 kts | 263° |
| 2026-04-18 07:11 | 22.84802 | 115.36144 | 27510 ft | 437 kts | 263° |
| 2026-04-18 07:11 | 22.84463 | 115.32874 | 27506 ft | 437 kts | 263° |
| 2026-04-18 07:11 | 22.84124 | 115.29605 | 27510 ft | 437 kts | 263° |
| 2026-04-18 07:12 | 22.83784 | 115.26332 | 27511 ft | 437 kts | 263° |
| 2026-04-18 07:12 | 22.83444 | 115.23064 | 27521 ft | 437 kts | 263° |
| 2026-04-18 07:12 | 22.83102 | 115.19787 | 27509 ft | 437 kts | 263° |
| 2026-04-18 07:12 | 22.82760 | 115.16518 | 27511 ft | 437 kts | 263° |
| 2026-04-18 07:13 | 22.82470 | 115.13753 | 27511 ft | 437 kts | 263° |
| 2026-04-18 07:13 | 22.82127 | 115.10488 | 27520 ft | 437 kts | 263° |
| 2026-04-18 07:13 | 22.81784 | 115.07218 | 27515 ft | 437 kts | 263° |
| 2026-04-18 07:13 | 22.81439 | 115.03940 | 27458 ft | 438 kts | 263° |
| 2026-04-18 07:14 | 22.81092 | 115.00656 | 27186 ft | 439 kts | 263° |
| 2026-04-18 07:14 | 22.80745 | 114.97376 | 26949 ft | 439 kts | 263° |
| 2026-04-18 07:14 | 22.80396 | 114.94085 | 26708 ft | 440 kts | 263° |
| 2026-04-18 07:14 | 22.80045 | 114.90782 | 26467 ft | 442 kts | 263° |
| 2026-04-18 07:15 | 22.79694 | 114.87480 | 26229 ft | 442 kts | 264° |
| 2026-04-18 07:15 | 22.79341 | 114.84165 | 25990 ft | 442 kts | 263° |
| 2026-04-18 07:15 | 22.78988 | 114.80854 | 25752 ft | 443 kts | 264° |
| 2026-04-18 07:15 | 22.78634 | 114.77543 | 25520 ft | 443 kts | 264° |
| 2026-04-18 07:16 | 22.78279 | 114.74232 | 25290 ft | 442 kts | 264° |
| 2026-04-18 07:16 | 22.77936 | 114.70915 | 25055 ft | 442 kts | 264° |
| 2026-04-18 07:16 | 22.77602 | 114.67610 | 24831 ft | 441 kts | 264° |
| 2026-04-18 07:16 | 22.77269 | 114.64304 | 24606 ft | 440 kts | 264° |
| 2026-04-18 07:17 | 22.76937 | 114.61023 | 24116 ft | 436 kts | 264° |
| 2026-04-18 07:17 | 22.76605 | 114.57771 | 23511 ft | 431 kts | 264° |
| 2026-04-18 07:17 | 22.76276 | 114.54556 | 22752 ft | 428 kts | 264° |
| 2026-04-18 07:17 | 22.75950 | 114.51378 | 22003 ft | 421 kts | 264° |
| 2026-04-18 07:18 | 22.75629 | 114.48242 | 21321 ft | 417 kts | 264° |
| 2026-04-18 07:18 | 22.75311 | 114.45130 | 20662 ft | 414 kts | 264° |
| 2026-04-18 07:18 | 22.74996 | 114.42045 | 20026 ft | 410 kts | 264° |
| 2026-04-18 07:18 | 22.74682 | 114.38985 | 19377 ft | 408 kts | 264° |
| 2026-04-18 07:19 | 22.74374 | 114.35975 | 18731 ft | 406 kts | 264° |
| 2026-04-18 07:19 | 22.74061 | 114.32940 | 18089 ft | 405 kts | 264° |
| 2026-04-18 07:19 | 22.73749 | 114.29914 | 17388 ft | 403 kts | 264° |
| 2026-04-18 07:19 | 22.73440 | 114.26917 | 16737 ft | 399 kts | 264° |
| 2026-04-18 07:20 | 22.73131 | 114.23936 | 16112 ft | 396 kts | 264° |
| 2026-04-18 07:20 | 22.72825 | 114.20985 | 15497 ft | 393 kts | 264° |
| 2026-04-18 07:20 | 22.72521 | 114.18057 | 14891 ft | 390 kts | 264° |
| 2026-04-18 07:20 | 22.72219 | 114.15154 | 14272 ft | 387 kts | 264° |
| 2026-04-18 07:21 | 22.71918 | 114.12261 | 13642 ft | 385 kts | 264° |
| 2026-04-18 07:21 | 22.71618 | 114.09383 | 12978 ft | 383 kts | 264° |
| 2026-04-18 07:21 | 22.71320 | 114.06533 | 12351 ft | 379 kts | 264° |
| 2026-04-18 07:21 | 22.70999 | 114.03722 | 11931 ft | 375 kts | 260° |
| 2026-04-18 07:22 | 22.70197 | 114.01044 | 11804 ft | 370 kts | 249° |
| 2026-04-18 07:22 | 22.69198 | 113.98507 | 11410 ft | 363 kts | 248° |
| 2026-04-18 07:22 | 22.68217 | 113.96009 | 10940 ft | 358 kts | 249° |
| 2026-04-18 07:22 | 22.67257 | 113.93533 | 10513 ft | 353 kts | 249° |
| 2026-04-18 07:23 | 22.66340 | 113.91137 | 10436 ft | 338 kts | 249° |
| 2026-04-18 07:23 | 22.65463 | 113.88831 | 10343 ft | 324 kts | 249° |
| 2026-04-18 07:23 | 22.64653 | 113.86692 | 10266 ft | 312 kts | 249° |
| 2026-04-18 07:23 | 22.63846 | 113.84561 | 10195 ft | 300 kts | 249° |
| 2026-04-18 07:24 | 22.63068 | 113.82511 | 10121 ft | 289 kts | 249° |
| 2026-04-18 07:24 | 22.62568 | 113.81192 | 10069 ft | 282 kts | 250° |
| 2026-04-18 07:24 | 22.61840 | 113.79260 | 9987 ft | 273 kts | 250° |
| 2026-04-18 07:24 | 22.61133 | 113.77374 | 9764 ft | 269 kts | 250° |
| 2026-04-18 07:25 | 22.60430 | 113.75496 | 9430 ft | 269 kts | 250° |
| 2026-04-18 07:25 | 22.59728 | 113.73624 | 9201 ft | 266 kts | 250° |
| 2026-04-18 07:25 | 22.59041 | 113.71795 | 9136 ft | 262 kts | 250° |
| 2026-04-18 07:25 | 22.58373 | 113.70014 | 8993 ft | 263 kts | 249° |
| 2026-04-18 07:26 | 22.57683 | 113.68174 | 8871 ft | 265 kts | 250° |
| 2026-04-18 07:26 | 22.56984 | 113.66312 | 8727 ft | 268 kts | 249° |
| 2026-04-18 07:26 | 22.56280 | 113.64441 | 8571 ft | 269 kts | 249° |
| 2026-04-18 07:26 | 22.55575 | 113.62566 | 8416 ft | 269 kts | 249° |
| 2026-04-18 07:27 | 22.54870 | 113.60691 | 8260 ft | 269 kts | 249° |
| 2026-04-18 07:27 | 22.54172 | 113.58838 | 8118 ft | 270 kts | 249° |
| 2026-04-18 07:27 | 22.53457 | 113.56942 | 7950 ft | 267 kts | 249° |
| 2026-04-18 07:27 | 22.52710 | 113.55123 | 7905 ft | 263 kts | 245° |
| 2026-04-18 07:28 | 22.51867 | 113.53364 | 7489 ft | 274 kts | 243° |
| 2026-04-18 07:28 | 22.50980 | 113.51571 | 7412 ft | 265 kts | 243° |
| 2026-04-18 07:28 | 22.50126 | 113.49840 | 7238 ft | 259 kts | 243° |
| 2026-04-18 07:28 | 22.49273 | 113.48093 | 6968 ft | 259 kts | 243° |
| 2026-04-18 07:29 | 22.48451 | 113.46398 | 6721 ft | 258 kts | 243° |
| 2026-04-18 07:29 | 22.47623 | 113.44689 | 6453 ft | 256 kts | 243° |
| 2026-04-18 07:29 | 22.46782 | 113.42951 | 6072 ft | 260 kts | 243° |
| 2026-04-18 07:29 | 22.45873 | 113.41273 | 5662 ft | 266 kts | 231° |
| 2026-04-18 07:30 | 22.44378 | 113.40085 | 5237 ft | 274 kts | 203° |
| 2026-04-18 07:30 | 22.42493 | 113.39763 | 4936 ft | 277 kts | 177° |
| 2026-04-18 07:30 | 22.41228 | 113.40019 | 4913 ft | 271 kts | 166° |
| 2026-04-18 07:30 | 22.40911 | 113.40119 | 4907 ft | 270 kts | 165° |
| 2026-04-18 07:31 | 22.39212 | 113.40704 | 4896 ft | 267 kts | 163° |
| 2026-04-18 07:31 | 22.37459 | 113.41336 | 4888 ft | 266 kts | 163° |
| 2026-04-18 07:31 | 22.35704 | 113.41966 | 4884 ft | 265 kts | 163° |
| 2026-04-18 07:31 | 22.33946 | 113.42589 | 4888 ft | 266 kts | 164° |
| 2026-04-18 07:32 | 22.32189 | 113.43205 | 4886 ft | 266 kts | 164° |
| 2026-04-18 07:32 | 22.30430 | 113.43817 | 4879 ft | 266 kts | 164° |
| 2026-04-18 07:32 | 22.28674 | 113.44425 | 4885 ft | 266 kts | 164° |
| 2026-04-18 07:32 | 22.26911 | 113.45032 | 4892 ft | 265 kts | 164° |
| 2026-04-18 07:33 | 22.25150 | 113.45637 | 4886 ft | 266 kts | 164° |
| 2026-04-18 07:33 | 22.23365 | 113.46115 | 4878 ft | 264 kts | 180° |
| 2026-04-18 07:33 | 22.21606 | 113.45725 | 4901 ft | 258 kts | 208° |
| 2026-04-18 07:33 | 22.20172 | 113.44597 | 4902 ft | 256 kts | 225° |
| 2026-04-18 07:34 | 22.18905 | 113.43240 | 4895 ft | 257 kts | 227° |
| 2026-04-18 07:34 | 22.17660 | 113.41857 | 4898 ft | 257 kts | 227° |
| 2026-04-18 07:34 | 22.16408 | 113.40465 | 4887 ft | 259 kts | 227° |
| 2026-04-18 07:34 | 22.15161 | 113.39088 | 4896 ft | 255 kts | 227° |
| 2026-04-18 07:35 | 22.13949 | 113.37756 | 4878 ft | 242 kts | 227° |
| 2026-04-18 07:35 | 22.12795 | 113.36495 | 4868 ft | 230 kts | 227° |
| 2026-04-18 07:35 | 22.11685 | 113.35283 | 4878 ft | 226 kts | 227° |
| 2026-04-18 07:35 | 22.10585 | 113.34083 | 4881 ft | 226 kts | 227° |
| 2026-04-18 07:36 | 22.09481 | 113.32883 | 4876 ft | 224 kts | 227° |
| 2026-04-18 07:36 | 22.08389 | 113.31694 | 4882 ft | 221 kts | 226° |
| 2026-04-18 07:36 | 22.07336 | 113.30549 | 4898 ft | 210 kts | 227° |
| 2026-04-18 07:36 | 22.06327 | 113.29453 | 4881 ft | 204 kts | 227° |
| 2026-04-18 07:37 | 22.05333 | 113.28372 | 4879 ft | 202 kts | 227° |
| 2026-04-18 07:37 | 22.04339 | 113.27293 | 4881 ft | 203 kts | 227° |
| 2026-04-18 07:37 | 22.03345 | 113.26214 | 4883 ft | 203 kts | 227° |
| 2026-04-18 07:37 | 22.02349 | 113.25133 | 4880 ft | 203 kts | 227° |
| 2026-04-18 07:38 | 22.01351 | 113.24052 | 4877 ft | 203 kts | 227° |
| 2026-04-18 07:38 | 22.00353 | 113.22972 | 4881 ft | 204 kts | 226° |
| 2026-04-18 07:38 | 21.99347 | 113.21897 | 4882 ft | 204 kts | 226° |
| 2026-04-18 07:38 | 21.98341 | 113.20823 | 4890 ft | 203 kts | 226° |
| 2026-04-18 07:39 | 21.97320 | 113.19733 | 4666 ft | 209 kts | 227° |
| 2026-04-18 07:39 | 21.96288 | 113.18633 | 4437 ft | 207 kts | 226° |
| 2026-04-18 07:39 | 21.95274 | 113.17551 | 4182 ft | 203 kts | 226° |
| 2026-04-18 07:39 | 21.94278 | 113.16488 | 3934 ft | 200 kts | 226° |
| 2026-04-18 07:40 | 21.93295 | 113.15440 | 3681 ft | 198 kts | 226° |
| 2026-04-18 07:40 | 21.92320 | 113.14399 | 3450 ft | 198 kts | 226° |
| 2026-04-18 07:40 | 21.91344 | 113.13359 | 3212 ft | 197 kts | 226° |
| 2026-04-18 07:40 | 21.90348 | 113.12331 | 3027 ft | 199 kts | 218° |
| 2026-04-18 07:41 | 21.89065 | 113.11857 | 2986 ft | 199 kts | 180° |
| 2026-04-18 07:41 | 21.87768 | 113.12359 | 2988 ft | 204 kts | 144° |
| 2026-04-18 07:41 | 21.86707 | 113.13409 | 3002 ft | 209 kts | 136° |
| 2026-04-18 07:41 | 21.85697 | 113.14529 | 2970 ft | 205 kts | 135° |
| 2026-04-18 07:42 | 21.84729 | 113.15607 | 2973 ft | 196 kts | 135° |
| 2026-04-18 07:42 | 21.83799 | 113.16637 | 2973 ft | 189 kts | 134° |
| 2026-04-18 07:42 | 21.83188 | 113.17834 | 2976 ft | 186 kts | 99° |
| 2026-04-18 07:42 | 21.83393 | 113.19179 | 2995 ft | 185 kts | 58° |
| 2026-04-18 07:43 | 21.84254 | 113.20225 | 3015 ft | 187 kts | 43° |
| 2026-04-18 07:43 | 21.85195 | 113.21227 | 2987 ft | 191 kts | 44° |
| 2026-04-18 07:43 | 21.86146 | 113.22242 | 2829 ft | 193 kts | 43° |
| 2026-04-18 07:43 | 21.87095 | 113.23249 | 2618 ft | 190 kts | 43° |
| 2026-04-18 07:44 | 21.88023 | 113.24235 | 2427 ft | 185 kts | 43° |
| 2026-04-18 07:44 | 21.88920 | 113.25185 | 2262 ft | 183 kts | 43° |
| 2026-04-18 07:44 | 21.89823 | 113.26142 | 2134 ft | 182 kts | 43° |
| 2026-04-18 07:44 | 21.90723 | 113.27095 | 1996 ft | 180 kts | 44° |
| 2026-04-18 07:45 | 21.91592 | 113.28017 | 1836 ft | 169 kts | 44° |
| 2026-04-18 07:45 | 21.92416 | 113.28893 | 1694 ft | 166 kts | 44° |
| 2026-04-18 07:45 | 21.93231 | 113.29759 | 1495 ft | 164 kts | 44° |
| 2026-04-18 07:45 | 21.94036 | 113.30614 | 1373 ft | 159 kts | 44° |
| 2026-04-18 07:46 | 21.94827 | 113.31454 | 1313 ft | 164 kts | 43° |
| 2026-04-18 07:46 | 21.95650 | 113.32328 | 1079 ft | 166 kts | 45° |
| 2026-04-18 07:46 | 21.96459 | 113.33187 | 844 ft | 161 kts | 45° |
| 2026-04-18 07:46 | 21.97255 | 113.34018 | 616 ft | 157 kts | 45° |
| 2026-04-18 07:47 | 21.98013 | 113.34820 | 432 ft | 152 kts | 47° |
| 2026-04-18 07:47 | 21.98765 | 113.35627 | 263 ft | 154 kts | 46° |
| 2026-04-18 07:47 | 21.99527 | 113.36446 | 71 ft | 155 kts | 47° |
| 2026-04-18 07:47 | 22.00260 | 113.37245 | 26 ft | 137 kts | 42° |
| 2026-04-18 07:48 | 22.00839 | 113.37844 | 25 ft | 94 kts | 44° |
| 2026-04-18 07:48 | 22.01201 | 113.38228 | 26 ft | 52 kts | 45° |
| 2026-04-18 07:48 | 22.01364 | 113.38402 | 27 ft | 25 kts | 45° |
| 2026-04-18 07:48 | 22.01483 | 113.38526 | 26 ft | 23 kts | 44° |
| 2026-04-18 07:49 | 22.01596 | 113.38645 | 27 ft | 22 kts | 44° |
| 2026-04-18 07:49 | 22.01704 | 113.38762 | 27 ft | 22 kts | 45° |
| 2026-04-18 07:49 | 22.01821 | 113.38884 | 25 ft | 23 kts | 44° |
| 2026-04-18 07:49 | 22.01916 | 113.38880 | 25 ft | 15 kts | 315° |
| 2026-04-18 07:50 | 22.01948 | 113.38780 | 25 ft | 17 kts | 234° |
| 2026-04-18 07:50 | 22.01865 | 113.38679 | 25 ft | 19 kts | 223° |
| 2026-04-18 07:50 | 22.01764 | 113.38571 | 27 ft | 22 kts | 232° |
| 2026-04-18 07:50 | 22.01685 | 113.38430 | 25 ft | 22 kts | 206° |
| 2026-04-18 07:51 | 22.01551 | 113.38347 | 26 ft | 24 kts | 225° |
| 2026-04-18 07:51 | 22.01430 | 113.38217 | 26 ft | 26 kts | 224° |
| 2026-04-18 07:51 | 22.01300 | 113.38080 | 27 ft | 26 kts | 225° |
| 2026-04-18 07:51 | 22.01175 | 113.37947 | 28 ft | 24 kts | 225° |
| 2026-04-18 07:52 | 22.01059 | 113.37823 | 26 ft | 23 kts | 224° |
| 2026-04-18 07:52 | 22.01007 | 113.37732 | 26 ft | 13 kts | 281° |
| 2026-04-18 07:52 | 22.01064 | 113.37658 | 26 ft | 13 kts | 315° |
| 2026-04-18 07:52 | 22.01131 | 113.37588 | 28 ft | 13 kts | 315° |
| 2026-04-18 07:53 | 22.01167 | 113.37527 | 27 ft | 9 kts | 270° |
| 2026-04-18 07:53 | 22.01134 | 113.37480 | 26 ft | 5 kts | 226° |
| 2026-04-18 07:53 | 22.01120 | 113.37464 | 25 ft | 0 kts | 226° |